Time;durP1;ratioP1;P1;durP2;ratioP2;P2;SDS_P1;SDS_P2;PMS_P1;PMS_P2;Temp;Humidity;BMP_temperature;BMP_pressure;BME280_temperature;BME280_humidity;BME280_pressure;Samples;Min_cycle;Max_cycle;Signal;HPM_P1;HPM_P2
2023/05/12 00:01:58;;;;;;;29.52;19.48;;;;;;;12.60;100.00;100747.34;6258814;28;20037;-93
2023/05/12 00:05:00;;;;;;;37.75;19.55;;;;;;;12.57;100.00;100748.44;6261421;28;20506;-93
2023/05/12 00:08:03;;;;;;;35.90;18.98;;;;;;;12.56;100.00;100749.38;6260163;28;20048;-93
2023/05/12 00:11:05;;;;;;;34.38;18.48;;;;;;;12.57;100.00;100748.44;6237273;28;20329;-93
2023/05/12 00:14:06;;;;;;;29.45;19.20;;;;;;;12.59;100.00;100748.28;6255823;28;20549;-93
2023/05/12 00:17:08;;;;;;;33.38;20.15;;;;;;;12.58;100.00;100744.88;6254632;28;20104;-93
2023/05/12 00:20:11;;;;;;;41.65;20.73;;;;;;;12.59;100.00;100746.50;6256742;28;20075;-93
2023/05/12 00:23:13;;;;;;;34.78;20.42;;;;;;;12.62;100.00;100751.47;6259628;28;20048;-94
2023/05/12 00:26:16;;;;;;;62.67;21.58;;;;;;;12.66;100.00;100757.19;6257524;28;20083;-93
2023/05/12 00:29:20;;;;;;;108.82;22.60;;;;;;;12.68;100.00;100761.31;6258834;28;20497;-94
2023/05/12 00:32:21;;;;;;;81.90;20.50;;;;;;;12.67;100.00;100762.28;6264707;28;20045;-94
2023/05/12 00:35:23;;;;;;;85.40;20.88;;;;;;;12.68;100.00;100768.28;6249606;28;20045;-93
2023/05/12 00:38:25;;;;;;;86.07;19.83;;;;;;;12.68;100.00;100763.91;6241676;28;20048;-93
2023/05/12 00:41:27;;;;;;;80.00;20.05;;;;;;;12.64;100.00;100761.69;6255610;28;20400;-94
2023/05/12 00:44:29;;;;;;;57.88;19.60;;;;;;;12.61;100.00;100761.97;6244102;28;20033;-93
2023/05/12 00:47:31;;;;;;;52.15;19.25;;;;;;;12.56;100.00;100777.94;6251747;28;20098;-94
2023/05/12 00:50:33;;;;;;;37.70;18.88;;;;;;;12.60;100.00;100773.31;6256662;28;20055;-93
2023/05/12 00:53:36;;;;;;;49.08;19.50;;;;;;;12.63;100.00;100775.66;6248782;28;20120;-94
2023/05/12 00:56:50;;;;;;;79.82;20.05;;;;;;;12.61;100.00;100769.75;6254184;28;20045;-93
2023/05/12 00:59:55;;;;;;;70.95;20.85;;;;;;;12.64;100.00;100772.91;6254277;28;20064;-94
2023/05/12 01:02:57;;;;;;;71.28;18.83;;;;;;;12.61;100.00;100762.78;6246601;28;20574;-94
2023/05/12 01:06:21;;;;;;;75.97;19.95;;;;;;;12.59;100.00;100771.66;6239560;28;20044;-93
2023/05/12 01:09:23;;;;;;;71.50;20.00;;;;;;;12.58;100.00;100776.03;6238976;28;20846;-94
2023/05/12 01:12:31;;;;;;;91.68;20.58;;;;;;;12.54;100.00;100779.81;6230708;28;20056;-93
2023/05/12 01:15:33;;;;;;;96.10;20.45;;;;;;;12.53;100.00;100779.97;6243534;28;20179;-94
2023/05/12 01:18:37;;;;;;;67.30;19.23;;;;;;;12.49;100.00;100776.78;6254329;28;20414;-93
2023/05/12 01:21:40;;;;;;;59.08;18.15;;;;;;;12.49;100.00;100777.59;6256780;28;20052;-94
2023/05/12 01:24:51;;;;;;;68.78;18.88;;;;;;;12.49;100.00;100777.59;6236395;28;20045;-93
2023/05/12 01:28:08;;;;;;;90.68;20.10;;;;;;;12.52;100.00;100776.56;6254866;28;20415;-93
2023/05/12 01:31:12;;;;;;;93.88;20.13;;;;;;;12.49;100.00;100771.59;6248810;28;20076;-94
2023/05/12 01:34:17;;;;;;;159.32;25.27;;;;;;;12.47;100.00;100770.88;6248339;28;20049;-93
2023/05/12 01:37:25;;;;;;;65.93;18.40;;;;;;;12.46;100.00;100770.06;6254134;28;20449;-94
2023/05/12 01:40:28;;;;;;;45.22;17.85;;;;;;;12.45;100.00;100775.41;6247495;28;20044;-94
2023/05/12 01:43:31;;;;;;;32.78;17.85;;;;;;;12.42;100.00;100773.03;6251641;28;20041;-93
2023/05/12 01:46:33;;;;;;;33.30;17.55;;;;;;;12.41;100.00;100777.41;6236078;28;20155;-93
2023/05/12 01:49:38;;;;;;;29.05;17.25;;;;;;;12.38;100.00;100772.50;6257085;28;20048;-94
2023/05/12 01:52:45;;;;;;;56.78;19.25;;;;;;;12.37;100.00;100768.25;6245774;28;20558;-94
2023/05/12 01:55:49;;;;;;;97.45;20.05;;;;;;;12.32;100.00;100766.97;6247008;28;20049;-93
2023/05/12 01:58:51;;;;;;;29.92;17.20;;;;;;;12.33;100.00;100777.25;6237428;28;20047;-94
2023/05/12 02:01:53;;;;;;;27.27;16.73;;;;;;;12.33;100.00;100781.63;6258404;28;20041;-93
2023/05/12 02:05:02;;;;;;;32.92;17.27;;;;;;;12.31;100.00;100781.72;6250444;28;20071;-93
2023/05/12 02:08:06;;;;;;;29.85;16.27;;;;;;;12.34;100.00;100783.25;6233918;28;20045;-93
2023/05/12 02:11:08;;;;;;;25.70;16.52;;;;;;;12.31;100.00;100780.91;6246803;28;20052;-93
2023/05/12 02:14:10;;;;;;;25.13;16.73;;;;;;;12.33;100.00;100779.03;6248341;28;20077;-93
2023/05/12 02:17:12;;;;;;;26.52;17.35;;;;;;;12.36;100.00;100789.16;6243313;28;20048;-94
2023/05/12 02:20:15;;;;;;;24.42;15.95;;;;;;;12.34;100.00;100789.25;6261717;28;20049;-93
2023/05/12 02:23:18;;;;;;;22.42;15.13;;;;;;;12.33;100.00;100789.41;6250696;28;20442;-93
2023/05/12 02:26:22;;;;;;;25.13;16.20;;;;;;;12.33;100.00;100787.63;6258083;28;20049;-93
2023/05/12 02:29:25;;;;;;;24.67;17.25;;;;;;;12.32;100.00;100780.78;6252179;28;20750;-93
2023/05/12 02:32:27;;;;;;;23.48;16.85;;;;;;;12.35;100.00;100782.31;6252209;28;20044;-93
2023/05/12 02:35:29;;;;;;;25.27;16.83;;;;;;;12.33;100.00;100782.44;6257550;28;20052;-93
2023/05/12 02:38:33;;;;;;;24.25;17.17;;;;;;;12.35;100.00;100790.09;6267547;28;20049;-93
2023/05/12 02:41:36;;;;;;;25.80;16.52;;;;;;;12.34;100.00;100788.44;6243532;28;20052;-92
2023/05/12 02:44:38;;;;;;;26.23;16.92;;;;;;;12.32;100.00;100783.38;6262873;28;20044;-93
2023/05/12 02:47:40;;;;;;;23.15;15.70;;;;;;;12.30;100.00;100782.69;6260682;28;20570;-93
2023/05/12 02:50:43;;;;;;;23.23;16.33;;;;;;;12.29;100.00;100781.84;6253480;28;20052;-93
2023/05/12 02:53:45;;;;;;;23.73;15.38;;;;;;;12.28;100.00;100788.00;6258656;28;20052;-93
2023/05/12 02:56:47;;;;;;;24.13;15.20;;;;;;;12.25;100.00;100790.84;6262510;28;20045;-93
2023/05/12 02:59:48;;;;;;;23.88;15.95;;;;;;;12.23;100.00;100797.94;6255688;28;20048;-93
2023/05/12 03:02:50;;;;;;;29.52;16.90;;;;;;;12.22;100.00;100792.84;6252850;28;20648;-93
2023/05/12 03:05:52;;;;;;;22.20;14.95;;;;;;;12.21;100.00;100789.44;6243222;28;20068;-92
2023/05/12 03:08:54;;;;;;;24.23;16.65;;;;;;;12.22;100.00;100778.13;6247287;28;20115;-92
2023/05/12 03:11:56;;;;;;;24.88;16.70;;;;;;;12.21;100.00;100783.44;6259575;28;20953;-93
2023/05/12 03:14:58;;;;;;;25.13;17.25;;;;;;;12.22;100.00;100780.72;6252154;28;20113;-93
2023/05/12 03:18:00;;;;;;;26.48;17.15;;;;;;;12.26;100.00;100782.09;6234975;28;20083;-92
2023/05/12 03:21:04;;;;;;;24.00;16.48;;;;;;;12.26;100.00;100794.25;6229313;28;20539;-93
2023/05/12 03:24:06;;;;;;;27.10;16.88;;;;;;;12.25;100.00;100793.44;6241002;28;20045;-93
2023/05/12 03:27:09;;;;;;;23.45;15.82;;;;;;;12.26;100.00;100797.69;6254264;28;20033;-93
2023/05/12 03:30:11;;;;;;;23.60;16.55;;;;;;;12.24;100.00;100802.16;6247006;28;20056;-92
2023/05/12 03:33:14;;;;;;;24.73;16.35;;;;;;;12.21;100.00;100789.44;6266859;28;20072;-93
2023/05/12 03:36:16;;;;;;;26.00;16.27;;;;;;;12.23;100.00;100795.34;6256486;28;20048;-92
2023/05/12 03:39:18;;;;;;;26.08;17.40;;;;;;;12.25;100.00;100798.63;6256905;28;21285;-92
2023/05/12 03:42:21;;;;;;;27.35;17.75;;;;;;;12.25;100.00;100798.63;6258004;28;20045;-92
2023/05/12 03:45:22;;;;;;;24.35;15.98;;;;;;;12.31;100.00;100799.09;6265543;28;20037;-92
2023/05/12 03:48:24;;;;;;;25.85;16.33;;;;;;;12.34;100.00;100794.44;6251154;28;20045;-93
2023/05/12 03:51:27;;;;;;;27.60;16.38;;;;;;;12.36;100.00;100791.75;6265121;28;20036;-92
2023/05/12 03:54:29;;;;;;;30.15;17.73;;;;;;;12.34;100.00;100796.22;6250136;28;20045;-93
2023/05/12 03:57:33;;;;;;;27.67;16.65;;;;;;;12.31;100.00;100793.88;6236356;28;20065;-93
2023/05/12 04:00:35;;;;;;;28.58;16.88;;;;;;;12.33;100.00;100792.00;6259134;28;20080;-92
2023/05/12 04:03:37;;;;;;;24.75;16.35;;;;;;;12.37;100.00;100801.16;6268878;28;20486;-93
2023/05/12 04:06:39;;;;;;;22.83;16.15;;;;;;;12.34;100.00;100798.81;6259612;28;20533;-92
2023/05/12 04:09:42;;;;;;;22.70;15.52;;;;;;;12.36;100.00;100802.13;6262390;28;20041;-92
2023/05/12 04:12:44;;;;;;;29.38;15.88;;;;;;;12.39;100.00;100817.44;6267050;28;20131;-93
2023/05/12 04:15:46;;;;;;;23.27;14.93;;;;;;;12.40;100.00;100819.91;6247348;28;20554;-93
2023/05/12 04:18:48;;;;;;;51.35;17.35;;;;;;;12.43;100.00;100822.25;6255254;28;20033;-93
2023/05/12 04:21:50;;;;;;;40.42;16.63;;;;;;;12.42;100.00;100824.97;6251227;28;20663;-93
2023/05/12 04:24:52;;;;;;;35.05;16.15;;;;;;;12.45;100.00;100846.34;6264100;28;20041;-93
2023/05/12 04:27:54;;;;;;;31.42;17.15;;;;;;;12.51;100.00;100860.56;6250769;28;20052;-93
2023/05/12 04:31:04;;;;;;;60.45;19.83;;;;;;;12.55;100.00;100856.78;6261844;28;20574;-92
2023/05/12 04:34:08;;;;;;;98.22;20.83;;;;;;;12.61;100.00;100843.28;6261099;28;20029;-92
2023/05/12 04:37:10;;;;;;;117.35;21.45;;;;;;;12.62;100.00;100852.75;6257576;28;20103;-92
2023/05/12 04:40:12;;;;;;;69.50;19.73;;;;;;;12.61;100.00;100853.69;6257827;28;20055;-93
2023/05/12 04:43:14;;;;;;;172.38;24.02;;;;;;;12.64;100.00;100860.38;6259898;28;20037;-93
2023/05/12 04:46:19;;;;;;;90.93;19.67;;;;;;;12.70;100.00;100857.31;6258883;28;20044;-92
2023/05/12 04:49:22;;;;;;;66.70;19.08;;;;;;;12.77;100.00;100860.19;6243155;28;20048;-93
2023/05/12 04:52:24;;;;;;;57.78;19.55;;;;;;;12.82;100.00;100871.88;6251141;28;20068;-92
2023/05/12 04:55:26;;;;;;;56.97;19.38;;;;;;;12.87;100.00;100864.53;6235282;28;20542;-93
2023/05/12 04:58:28;;;;;;;47.72;18.23;;;;;;;12.93;100.00;100883.97;6239418;28;20424;-92
2023/05/12 05:01:30;;;;;;;71.75;20.33;;;;;;;13.00;100.00;100873.88;6260643;28;20060;-92
2023/05/12 05:04:32;;;;;;;50.47;19.23;;;;;;;13.06;100.00;100881.16;6266188;28;20499;-92
2023/05/12 05:07:35;;;;;;;54.13;18.63;;;;;;;13.11;100.00;100894.59;6260533;28;20093;-92
2023/05/12 05:10:37;;;;;;;43.67;17.58;;;;;;;13.15;100.00;100889.00;6260949;28;20178;-92
2023/05/12 05:13:39;;;;;;;45.13;19.00;;;;;;;13.23;100.00;100882.34;6259523;28;20029;-92
2023/05/12 05:16:42;;;;;;;40.92;19.38;;;;;;;13.31;100.00;100890.34;6260277;28;20036;-92
2023/05/12 05:19:45;;;;;;;40.65;19.50;;;;;;;13.34;100.00;100887.47;6241332;28;20143;-91
2023/05/12 05:22:59;;;;;;;39.97;19.48;;;;;;;13.39;100.00;100897.50;6262801;28;20087;-92
2023/05/12 05:26:01;;;;;;;35.03;18.50;;;;;;;13.43;100.00;100901.50;6257887;28;20048;-92
2023/05/12 05:29:05;;;;;;;37.13;19.48;;;;;;;13.46;100.00;100902.03;6257945;28;20644;-92
2023/05/12 05:32:07;;;;;;;35.45;18.70;;;;;;;13.46;100.00;100906.41;6258622;28;20053;-92
2023/05/12 05:35:09;;;;;;;28.75;18.77;;;;;;;13.49;100.00;100908.75;6272340;28;20056;-92
2023/05/12 05:38:16;;;;;;;30.70;18.08;;;;;;;13.53;100.00;100907.56;6241617;28;20130;-92
2023/05/12 05:41:18;;;;;;;28.52;17.85;;;;;;;13.61;100.00;100899.09;6225931;28;20041;-92
2023/05/12 05:44:20;;;;;;;28.27;19.63;;;;;;;13.73;100.00;100903.25;6225770;28;20102;-93
2023/05/12 05:47:22;;;;;;;27.02;18.30;;;;;;;13.81;100.00;100908.59;6241697;28;20045;-92
2023/05/12 05:50:24;;;;;;;28.15;19.17;;;;;;;13.87;100.00;100907.25;6265397;28;20123;-93
2023/05/12 05:53:26;;;;;;;26.48;18.58;;;;;;;13.95;100.00;100903.03;6247156;28;20052;-93
2023/05/12 05:56:30;;;;;;;25.85;18.05;;;;;;;14.06;100.00;100911.66;6257174;28;20033;-93
2023/05/12 05:59:32;;;;;;;26.65;18.90;;;;;;;14.17;100.00;100916.78;6263014;28;20055;-93
2023/05/12 06:02:35;;;;;;;25.73;18.77;;;;;;;14.22;100.00;100918.00;6252336;28;20041;-92
2023/05/12 06:05:40;;;;;;;25.45;18.85;;;;;;;14.34;100.00;100923.09;6243276;28;20041;-92
2023/05/12 06:08:44;;;;;;;24.95;17.75;;;;;;;14.43;100.00;100917.91;6248718;28;20484;-92
2023/05/12 06:11:46;;;;;;;28.60;19.77;;;;;;;14.55;100.00;100930.81;6238146;28;20044;-92
2023/05/12 06:14:50;;;;;;;25.42;19.30;;;;;;;14.69;100.00;100930.41;6243217;28;20510;-92
2023/05/12 06:17:51;;;;;;;24.33;18.60;;;;;;;14.81;100.00;100937.13;6247922;28;20052;-91
2023/05/12 06:20:53;;;;;;;24.58;19.08;;;;;;;14.91;100.00;100931.06;6261106;28;20041;-92
2023/05/12 06:23:55;;;;;;;23.52;18.60;;;;;;;15.03;100.00;100941.22;6233466;28;20048;-91
2023/05/12 06:26:57;;;;;;;23.77;18.90;;;;;;;15.10;100.00;100946.66;6260017;28;20499;-92
2023/05/12 06:29:59;;;;;;;24.77;18.02;;;;;;;15.20;100.00;100946.66;6260768;28;20041;-92
2023/05/12 06:33:01;;;;;;;23.30;17.98;;;;;;;15.26;100.00;100952.13;6256761;28;20037;-92
2023/05/12 06:36:04;;;;;;;22.08;17.48;;;;;;;15.28;100.00;100947.59;6262889;28;20045;-92
2023/05/12 06:39:07;;;;;;;20.90;16.48;;;;;;;15.32;100.00;100955.13;6275784;28;20100;-92
2023/05/12 06:42:10;;;;;;;20.80;17.35;;;;;;;15.34;100.00;100940.16;6255359;28;20053;-91
2023/05/12 06:45:16;;;;;;;24.75;17.67;;;;;;;15.36;100.00;100943.47;6261776;28;20078;-92
2023/05/12 06:48:18;;;;;;;25.38;19.17;;;;;;;15.22;100.00;100937.72;6263544;28;20491;-91
2023/05/12 06:51:20;;;;;;;31.63;20.55;;;;;;;15.26;100.00;100939.09;6261526;28;20492;-92
2023/05/12 06:54:23;;;;;;;25.27;20.52;;;;;;;15.29;100.00;100944.00;6225647;28;20992;-92
2023/05/12 06:57:25;;;;;;;24.85;18.73;;;;;;;15.38;100.00;100947.56;6264210;28;20045;-94
2023/05/12 07:00:27;;;;;;;24.13;18.73;;;;;;;15.57;100.00;100948.47;6257390;28;20041;-93
2023/05/12 07:03:31;;;;;;;27.55;20.10;;;;;;;15.68;100.00;100951.72;6265635;28;20295;-93
2023/05/12 07:06:33;;;;;;;24.48;19.23;;;;;;;15.82;100.00;100952.22;6263375;28;20075;-94
2023/05/12 07:09:35;;;;;;;24.45;19.92;;;;;;;15.91;100.00;100943.53;6262907;28;20037;-94
2023/05/12 07:12:38;;;;;;;25.00;19.67;;;;;;;16.10;100.00;100943.44;6256453;28;20048;-94
2023/05/12 07:15:40;;;;;;;24.73;19.15;;;;;;;16.19;100.00;100940.91;6264227;28;20045;-95
2023/05/12 07:18:42;;;;;;;25.83;21.05;;;;;;;16.23;100.00;100939.63;6263073;28;20047;-94
2023/05/12 07:21:44;;;;;;;23.83;19.48;;;;;;;16.38;100.00;100938.16;6251322;28;20045;-95
2023/05/12 07:24:46;;;;;;;27.90;19.85;;;;;;;16.46;100.00;100940.03;6247101;28;20513;-94
2023/05/12 07:27:48;;;;;;;24.65;19.77;;;;;;;16.56;100.00;100936.34;6257566;28;20050;-95
2023/05/12 07:30:50;;;;;;;22.73;19.40;;;;;;;16.74;100.00;100938.97;6232402;28;20041;-94
2023/05/12 07:33:52;;;;;;;23.05;17.75;;;;;;;16.92;100.00;100949.44;6250503;28;20049;-94
2023/05/12 07:36:54;;;;;;;20.25;16.95;;;;;;;17.04;100.00;100949.16;6255482;28;20086;-94
2023/05/12 07:39:56;;;;;;;25.25;21.33;;;;;;;17.08;100.00;100942.66;6251906;28;20551;-94
2023/05/12 07:42:57;;;;;;;18.60;15.77;;;;;;;17.15;100.00;100931.44;6251905;28;20037;-94
2023/05/12 07:46:00;;;;;;;25.60;17.58;;;;;;;17.20;100.00;100928.38;6251320;28;20044;-93
2023/05/12 07:49:01;;;;;;;20.95;16.42;;;;;;;17.35;100.00;100918.97;6248602;28;20051;-94
2023/05/12 07:52:04;;;;;;;18.33;15.30;;;;;;;17.51;100.00;100899.88;6248425;28;20056;-93
2023/05/12 07:55:06;;;;;;;16.70;14.90;;;;;;;17.69;100.00;100910.28;6255598;28;20561;-94
2023/05/12 07:58:09;;;;;;;18.98;15.65;;;;;;;17.79;100.00;100897.88;6244860;28;20084;-93
2023/05/12 08:01:11;;;;;;;17.85;14.57;;;;;;;17.93;100.00;100895.63;6260306;28;20044;-94
2023/05/12 08:04:13;;;;;;;17.98;14.70;;;;;;;18.13;100.00;100896.16;6259748;28;20128;-95
2023/05/12 08:07:15;;;;;;;13.50;11.23;;;;;;;18.24;100.00;100894.06;6256590;28;20478;-93
2023/05/12 08:10:18;;;;;;;12.30;11.10;;;;;;;18.37;100.00;100890.16;6251417;28;20491;-95
2023/05/12 08:13:20;;;;;;;14.25;12.05;;;;;;;18.52;100.00;100896.38;6258121;28;20120;-95
2023/05/12 08:16:22;;;;;;;10.98;9.88;;;;;;;18.63;100.00;100893.44;6246023;28;20052;-94
2023/05/12 08:19:24;;;;;;;14.00;11.82;;;;;;;18.75;100.00;100898.31;6256206;28;20041;-94
2023/05/12 08:22:26;;;;;;;12.02;9.30;;;;;;;18.89;100.00;100900.31;6253079;28;20132;-94
2023/05/12 08:25:29;;;;;;;10.18;8.95;;;;;;;18.95;100.00;100894.38;6235854;28;20065;-93
2023/05/12 08:28:31;;;;;;;10.35;8.88;;;;;;;18.98;100.00;100898.47;6259683;28;20045;-94
2023/05/12 08:31:33;;;;;;;9.88;8.10;;;;;;;18.91;100.00;100899.16;6260036;28;20060;-94
2023/05/12 08:34:35;;;;;;;10.10;8.48;;;;;;;18.92;100.00;100906.03;6264966;28;20455;-94
2023/05/12 08:37:37;;;;;;;9.45;8.15;;;;;;;18.97;100.00;100910.78;6251211;28;20041;-94
2023/05/12 08:41:12;;;;;;;9.27;8.30;;;;;;;19.07;100.00;100908.78;6251030;28;20046;-93
2023/05/12 08:44:14;;;;;;;8.98;7.20;;;;;;;19.07;100.00;100902.72;6257072;28;20118;-94
2023/05/12 08:47:19;;;;;;;9.95;7.47;;;;;;;19.07;100.00;100900.09;6250220;28;20047;-95
2023/05/12 08:50:21;;;;;;;10.15;7.63;;;;;;;19.05;100.00;100904.69;6253678;28;20134;-94
2023/05/12 08:53:25;;;;;;;9.30;8.00;;;;;;;18.93;100.00;100902.44;6249519;28;20045;-95
2023/05/12 08:56:28;;;;;;;9.55;7.85;;;;;;;18.89;100.00;100898.50;6261545;28;20088;-93
2023/05/12 08:59:34;;;;;;;11.45;7.55;;;;;;;18.96;100.00;100900.47;6241190;28;20056;-94
2023/05/12 09:02:38;;;;;;;10.48;7.47;;;;;;;19.11;100.00;100902.22;6260685;28;20048;-94
2023/05/12 09:05:57;;;;;;;9.75;7.78;;;;;;;19.33;100.00;100903.31;6254272;28;20052;-93
2023/05/12 09:08:59;;;;;;;8.25;7.45;;;;;;;19.55;100.00;100901.78;6262781;28;20053;-93
2023/05/12 09:12:04;;;;;;;9.70;7.72;;;;;;;19.68;100.00;100901.25;6264745;28;20040;-94
2023/05/12 09:15:09;;;;;;;10.07;7.22;;;;;;;19.65;100.00;100893.69;6264413;28;20055;-95
2023/05/12 09:18:12;;;;;;;8.85;7.00;;;;;;;19.75;100.00;100896.94;6264216;28;20177;-94
2023/05/12 09:21:14;;;;;;;7.30;6.47;;;;;;;19.79;100.00;100894.78;6261535;28;20045;-94
2023/05/12 09:24:16;;;;;;;8.35;7.45;;;;;;;19.71;100.00;100900.09;6239298;28;20069;-93
2023/05/12 09:27:24;;;;;;;8.05;7.10;;;;;;;19.45;100.00;100901.16;6239862;28;20041;-93
2023/05/12 09:30:36;;;;;;;10.57;7.38;;;;;;;19.08;100.00;100899.94;6253299;28;20136;-93
2023/05/12 09:33:38;;;;;;;9.18;7.55;;;;;;;18.80;100.00;100901.28;6236189;28;20049;-92
2023/05/12 09:36:40;;;;;;;9.43;7.53;;;;;;;18.58;100.00;100902.75;6238467;28;20192;-93
2023/05/12 09:39:43;;;;;;;8.13;7.05;;;;;;;18.46;100.00;100897.03;6235905;28;20041;-92
2023/05/12 09:42:45;;;;;;;8.23;7.50;;;;;;;18.42;100.00;100907.00;6238232;28;20118;-92
2023/05/12 09:45:49;;;;;;;9.57;7.70;;;;;;;18.29;100.00;100898.81;6251849;28;20034;-92
2023/05/12 09:48:55;;;;;;;10.13;8.10;;;;;;;18.22;100.00;100903.06;6225953;28;20049;-92
2023/05/12 09:51:58;;;;;;;8.13;7.35;;;;;;;18.23;100.00;100908.13;6260922;28;20536;-92
2023/05/12 09:55:05;;;;;;;9.27;7.05;;;;;;;18.25;100.00;100900.94;6260569;28;20415;-92
2023/05/12 09:58:09;;;;;;;9.18;6.68;;;;;;;18.27;100.00;100900.78;6261970;28;20410;-92
2023/05/12 10:01:13;;;;;;;9.63;6.82;;;;;;;18.32;100.00;100901.13;6260080;28;20045;-92
2023/05/12 10:04:25;;;;;;;8.20;7.13;;;;;;;18.39;100.00;100902.09;6248193;28;20060;-92
2023/05/12 10:07:28;;;;;;;9.68;6.47;;;;;;;18.42;100.00;100895.72;6237663;28;20550;-92
2023/05/12 10:10:32;;;;;;;10.35;7.05;;;;;;;18.50;100.00;100907.00;6239245;28;20041;-93
2023/05/12 10:13:35;;;;;;;11.25;6.50;;;;;;;18.61;100.00;100897.19;6223904;28;20037;-92
2023/05/12 10:16:37;;;;;;;6.97;5.80;;;;;;;18.68;100.00;100904.25;6240048;28;20041;-93
2023/05/12 10:19:41;;;;;;;8.65;5.57;;;;;;;18.76;100.00;100897.34;6239733;28;20434;-91
2023/05/12 10:22:44;;;;;;;10.15;5.50;;;;;;;18.87;100.00;100899.66;6238511;28;20034;-92
2023/05/12 10:25:46;;;;;;;6.03;5.40;;;;;;;19.06;100.00;100909.78;6237233;28;20525;-92
2023/05/12 10:28:50;;;;;;;6.18;5.57;;;;;;;19.23;100.00;100909.72;6236607;28;20099;-92
2023/05/12 10:31:51;;;;;;;7.20;5.53;;;;;;;19.39;100.00;100914.13;6246719;28;20119;-92
2023/05/12 10:34:55;;;;;;;6.80;5.72;;;;;;;19.49;100.00;100912.13;6242016;28;20042;-93
2023/05/12 10:38:02;;;;;;;7.45;5.70;;;;;;;19.62;100.00;100916.81;6251005;28;20088;-91
2023/05/12 10:41:05;;;;;;;8.95;6.25;;;;;;;19.70;100.00;100908.94;6253112;28;20072;-91
2023/05/12 10:44:09;;;;;;;7.72;5.18;;;;;;;19.77;100.00;100904.63;6260807;28;20053;-91
2023/05/12 10:47:16;;;;;;;5.93;5.30;;;;;;;19.78;100.00;100909.72;6250641;28;20064;-93
2023/05/12 10:50:27;;;;;;;7.53;5.68;;;;;;;19.81;100.00;100902.50;6246259;28;20553;-92
2023/05/12 10:53:37;;;;;;;7.18;5.55;;;;;;;19.96;100.00;100906.84;6252479;28;20034;-93
2023/05/12 10:56:57;;;;;;;7.50;5.35;;;;;;;20.10;100.00;100904.44;6258009;28;20047;-93
2023/05/12 11:00:00;;;;;;;9.07;5.72;;;;;;;20.22;100.00;100903.88;6253603;28;20114;-91
2023/05/12 11:03:11;;;;;;;5.22;4.72;;;;;;;20.02;100.00;100902.69;6254782;28;20400;-91
2023/05/12 11:06:18;;;;;;;6.32;5.68;;;;;;;20.01;100.00;100898.44;6245578;28;20057;-91
2023/05/12 11:09:21;;;;;;;6.95;5.03;;;;;;;20.20;100.00;100897.16;6242877;28;20041;-92
2023/05/12 11:12:25;;;;;;;7.53;5.00;;;;;;;20.52;100.00;100897.88;6251316;28;20171;-92
2023/05/12 11:15:28;;;;;;;6.95;4.75;;;;;;;20.88;100.00;100903.34;6253872;28;20053;-92
2023/05/12 11:18:30;;;;;;;7.88;5.15;;;;;;;21.08;100.00;100901.00;6242110;28;20740;-92
2023/05/12 11:21:32;;;;;;;6.43;5.82;;;;;;;21.12;100.00;100898.81;6245393;28;20118;-92
2023/05/12 11:24:36;;;;;;;9.38;5.85;;;;;;;21.25;100.00;100904.28;6228683;28;20502;-91
2023/05/12 11:27:41;;;;;;;8.43;5.65;;;;;;;21.47;100.00;100902.59;6246402;28;20045;-92
2023/05/12 11:30:53;;;;;;;7.88;5.65;;;;;;;21.47;100.00;100907.84;6258977;28;20037;-92
2023/05/12 11:34:04;;;;;;;5.90;5.30;;;;;;;21.54;100.00;100906.13;6239548;28;20049;-91
2023/05/12 11:37:14;;;;;;;7.85;6.18;;;;;;;21.24;100.00;100903.47;6256087;28;20126;-92
2023/05/12 11:40:18;;;;;;;9.35;6.03;;;;;;;21.14;100.00;100904.72;6263621;28;20048;-90
2023/05/12 11:43:21;;;;;;;9.27;6.18;;;;;;;21.22;100.00;100905.47;6252627;28;20037;-92
2023/05/12 11:46:25;;;;;;;7.35;6.10;;;;;;;21.46;100.00;100911.47;6262905;28;20123;-93
2023/05/12 11:49:29;;;;;;;7.55;5.72;;;;;;;21.70;100.00;100911.16;6258117;28;20488;-93
2023/05/12 11:52:31;;;;;;;6.60;5.80;;;;;;;21.85;100.00;100905.06;6237775;28;20071;-93
2023/05/12 11:55:33;;;;;;;9.45;5.38;;;;;;;22.07;100.00;100906.72;6259106;28;20051;-94
2023/05/12 11:58:35;;;;;;;5.72;5.22;;;;;;;22.42;100.00;100906.88;6250050;28;20451;-93
2023/05/12 12:01:45;;;;;;;8.05;5.63;;;;;;;22.74;100.00;100902.06;6262191;28;20037;-95
2023/05/12 12:04:48;;;;;;;7.18;5.07;;;;;;;22.99;100.00;100910.38;6252735;28;20487;-94
2023/05/12 12:07:50;;;;;;;4.88;4.47;;;;;;;23.25;100.00;100912.34;6259376;28;20029;-95
2023/05/12 12:10:52;;;;;;;5.05;4.38;;;;;;;23.58;100.00;100909.06;6260722;28;20059;-94
2023/05/12 12:13:55;;;;;;;5.18;4.43;;;;;;;23.78;100.00;100912.59;6263015;28;20048;-94
2023/05/12 12:16:59;;;;;;;6.35;4.82;;;;;;;23.67;100.00;100907.84;6261696;28;20051;-93
2023/05/12 12:20:01;;;;;;;6.78;4.53;;;;;;;23.43;100.00;100909.19;6257697;28;20044;-94
2023/05/12 12:23:03;;;;;;;5.70;4.63;;;;;;;23.21;100.00;100904.00;6250156;28;20049;-93
2023/05/12 12:26:05;;;;;;;4.53;4.10;;;;;;;22.85;98.11;100912.06;6247693;28;20045;-90
2023/05/12 12:29:08;;;;;;;8.57;4.15;;;;;;;22.96;100.00;100911.53;6251966;28;20087;-91
2023/05/12 12:32:10;;;;;;;5.15;4.20;;;;;;;23.71;99.57;100911.75;6254906;28;20045;-92
2023/05/12 12:35:12;;;;;;;4.80;4.40;;;;;;;24.45;97.46;100915.38;6261427;28;20391;-91
2023/05/12 12:38:20;;;;;;;5.13;3.75;;;;;;;24.91;99.58;100912.69;6245411;28;20121;-92
2023/05/12 12:41:22;;;;;;;4.72;4.22;;;;;;;25.20;87.35;100909.84;6253809;28;20045;-91
2023/05/12 12:44:24;;;;;;;5.13;4.07;;;;;;;25.29;84.84;100897.97;6237703;28;20057;-91
2023/05/12 12:47:26;;;;;;;4.90;4.40;;;;;;;25.65;89.37;100897.41;6245347;28;20043;-92
2023/05/12 12:50:29;;;;;;;5.15;4.15;;;;;;;26.26;91.46;100903.19;6249822;28;20162;-92
2023/05/12 12:53:31;;;;;;;5.15;4.07;;;;;;;26.61;82.51;100898.25;6251257;28;20045;-92
2023/05/12 12:56:33;;;;;;;6.05;4.13;;;;;;;26.39;75.20;100893.28;6251829;28;20037;-91
2023/05/12 12:59:35;;;;;;;7.22;4.13;;;;;;;25.60;75.88;100891.13;6256901;28;20045;-91
2023/05/12 13:02:38;;;;;;;6.18;4.28;;;;;;;24.59;79.98;100892.38;6252952;28;20056;-91
2023/05/12 13:05:40;;;;;;;4.40;3.92;;;;;;;23.78;91.45;100904.69;6260441;28;20581;-90
2023/05/12 13:08:42;;;;;;;4.80;4.30;;;;;;;23.26;97.37;100898.13;6252380;28;20155;-90
2023/05/12 13:11:43;;;;;;;5.25;4.00;;;;;;;23.24;95.94;100902.78;6258132;28;20606;-90
2023/05/12 13:14:46;;;;;;;5.47;3.90;;;;;;;24.05;100.00;100888.88;6257050;28;20047;-91
2023/05/12 13:17:48;;;;;;;5.03;4.00;;;;;;;24.87;87.92;100890.31;6256141;28;20048;-91
2023/05/12 13:20:50;;;;;;;4.47;3.47;;;;;;;25.27;80.74;100895.53;6257817;28;20037;-92
2023/05/12 13:23:55;;;;;;;5.57;3.78;;;;;;;25.39;79.36;100890.41;6251963;28;20055;-93
2023/05/12 13:26:57;;;;;;;5.15;3.67;;;;;;;25.46;83.78;100888.53;6237314;28;20511;-92
2023/05/12 13:29:59;;;;;;;4.80;3.85;;;;;;;25.63;70.48;100882.75;6238362;28;20499;-93
2023/05/12 13:33:01;;;;;;;6.18;3.65;;;;;;;25.80;70.72;100883.88;6249401;28;20067;-92
2023/05/12 13:36:07;;;;;;;8.43;3.20;;;;;;;26.00;57.77;100895.19;6250929;28;20158;-93
2023/05/12 13:39:09;;;;;;;4.22;2.83;;;;;;;26.18;57.69;100883.03;6248645;28;20414;-92
2023/05/12 13:42:12;;;;;;;4.47;2.95;;;;;;;26.19;57.70;100879.38;6243811;28;20045;-92
2023/05/12 13:45:14;;;;;;;3.72;2.78;;;;;;;26.37;56.41;100879.41;6254496;28;20041;-93
2023/05/12 13:48:17;;;;;;;3.95;3.10;;;;;;;26.76;57.80;100868.69;6249072;28;20526;-93
2023/05/12 13:51:19;;;;;;;4.50;3.42;;;;;;;27.04;52.79;100873.50;6256612;28;20056;-94